Time;durP1;ratioP1;P1;durP2;ratioP2;P2;SDS_P1;SDS_P2;PMS_P1;PMS_P2;Temp;Humidity;BMP_temperature;BMP_pressure;BME280_temperature;BME280_humidity;BME280_pressure;Samples;Min_cycle;Max_cycle;Signal;HPM_P1;HPM_P2
2022/03/26 00:00:16;;;;;;;24.27;15.02;;;;;;;10.84;32.03;100188.47;5086109;28;20040;-68
2022/03/26 00:02:50;;;;;;;24.13;17.70;;;;;;;10.87;31.81;100185.69;5086185;28;20106;-68
2022/03/26 00:05:23;;;;;;;26.23;17.65;;;;;;;10.49;32.01;100142.25;5085981;28;20204;-68
2022/03/26 00:07:55;;;;;;;25.33;16.58;;;;;;;10.51;32.19;100155.41;5086187;28;20040;-68
2022/03/26 00:10:29;;;;;;;22.13;14.98;;;;;;;10.72;32.33;100191.63;5086039;28;20048;-68
2022/03/26 00:13:01;;;;;;;29.40;17.85;;;;;;;10.46;31.99;100141.50;5085792;28;20044;-69
2022/03/26 00:15:34;;;;;;;22.80;15.10;;;;;;;9.82;32.52;100054.13;5086134;28;20041;-70
2022/03/26 00:18:07;;;;;;;25.17;17.17;;;;;;;10.10;32.17;100099.72;5085827;28;20250;-70
2022/03/26 00:20:37;;;;;;;28.20;17.92;;;;;;;10.66;32.35;100193.69;5085788;28;20037;-69
2022/03/26 00:23:06;;;;;;;26.73;16.55;;;;;;;10.37;32.23;100148.06;5085766;28;20208;-70
2022/03/26 00:25:38;;;;;;;24.75;16.75;;;;;;;10.58;32.42;100200.16;5086216;28;20248;-70
2022/03/26 00:28:07;;;;;;;27.80;18.80;;;;;;;10.67;32.16;100203.34;5086184;28;20032;-69
2022/03/26 00:30:37;;;;;;;22.80;16.40;;;;;;;10.82;32.05;100200.09;5068151;28;20276;-70
2022/03/26 00:33:07;;;;;;;22.58;17.33;;;;;;;10.95;31.99;100197.75;5085568;28;20150;-70
2022/03/26 00:35:37;;;;;;;22.13;15.43;;;;;;;10.67;32.10;100150.34;5086150;28;20043;-70
2022/03/26 00:38:07;;;;;;;23.80;16.90;;;;;;;10.97;31.62;100202.06;5085943;28;20203;-70
2022/03/26 00:40:40;;;;;;;24.55;18.23;;;;;;;10.98;31.98;100194.97;5068099;28;20044;-70
2022/03/26 00:43:08;;;;;;;25.58;18.65;;;;;;;10.17;31.79;100065.91;5085512;28;20049;-70
2022/03/26 00:45:38;;;;;;;28.83;18.92;;;;;;;10.93;32.07;100186.38;5085854;28;20052;-70
2022/03/26 00:48:08;;;;;;;24.08;16.58;;;;;;;10.93;32.04;100195.19;5086086;28;20040;-70
2022/03/26 00:50:38;;;;;;;23.70;16.90;;;;;;;10.90;32.14;100205.91;5086021;28;20096;-70
2022/03/26 00:53:08;;;;;;;23.33;15.20;;;;;;;10.90;32.04;100200.63;5067786;28;20044;-69
2022/03/26 00:55:40;;;;;;;27.35;16.88;;;;;;;10.88;32.23;100207.78;5085604;28;20347;-69
2022/03/26 00:58:09;;;;;;;32.60;19.23;;;;;;;10.82;32.33;100193.00;5068083;28;20107;-69
2022/03/26 01:00:39;;;;;;;29.15;17.02;;;;;;;10.38;32.80;100152.44;5051288;28;20115;-70
2022/03/26 01:03:10;;;;;;;25.35;17.17;;;;;;;10.56;33.05;100188.75;5085325;28;20213;-70
2022/03/26 01:05:41;;;;;;;25.50;18.23;;;;;;;10.62;32.59;100189.44;5068036;28;20041;-70
2022/03/26 01:08:11;;;;;;;25.40;18.25;;;;;;;10.63;32.61;100197.31;5068502;28;20204;-70
2022/03/26 01:10:44;;;;;;;27.23;18.60;;;;;;;10.65;32.59;100189.28;5085719;28;20277;-71
2022/03/26 01:13:16;;;;;;;28.15;15.95;;;;;;;10.55;32.84;100189.69;5085308;28;20107;-70
2022/03/26 01:15:46;;;;;;;24.65;17.05;;;;;;;10.32;32.79;100142.09;5067194;28;20057;-70
2022/03/26 01:18:16;;;;;;;24.27;16.73;;;;;;;10.23;32.82;100131.88;5085225;28;20070;-69
2022/03/26 01:20:46;;;;;;;27.23;16.90;;;;;;;10.55;32.77;100183.53;5085519;28;20058;-70
2022/03/26 01:23:19;;;;;;;24.17;16.17;;;;;;;10.50;33.05;100183.72;5089183;28;20044;-71
2022/03/26 01:25:53;;;;;;;22.52;15.63;;;;;;;10.40;33.10;100177.06;5071892;28;20071;-69
2022/03/26 01:28:26;;;;;;;25.92;17.83;;;;;;;9.26;32.98;100004.31;5054848;28;20079;-69
2022/03/26 01:31:00;;;;;;;25.98;16.98;;;;;;;10.47;32.84;100206.84;5089160;28;20041;-70
2022/03/26 01:33:32;;;;;;;31.05;18.95;;;;;;;10.51;32.78;100180.13;5089107;28;20048;-71
2022/03/26 01:36:06;;;;;;;23.38;16.92;;;;;;;10.19;33.31;100141.72;5088372;28;20047;-70
2022/03/26 01:38:38;;;;;;;30.83;17.77;;;;;;;9.84;33.42;100115.81;5055263;28;20090;-69
2022/03/26 01:41:12;;;;;;;27.65;16.38;;;;;;;10.19;33.48;100183.25;5088997;28;20086;-69
2022/03/26 01:43:46;;;;;;;28.95;17.00;;;;;;;10.18;33.55;100185.03;5089236;28;20045;-69
2022/03/26 01:46:20;;;;;;;26.00;17.52;;;;;;;10.07;33.65;100186.38;5071308;28;20139;-69
2022/03/26 01:48:53;;;;;;;22.40;15.90;;;;;;;9.68;34.03;100147.31;5071474;28;20046;-69
2022/03/26 01:51:25;;;;;;;24.92;18.00;;;;;;;9.86;33.87;100193.41;5089151;28;20086;-69
2022/03/26 01:53:58;;;;;;;24.00;16.92;;;;;;;9.80;34.12;100188.34;5071197;28;20040;-69
2022/03/26 01:56:32;;;;;;;24.17;17.20;;;;;;;9.80;33.88;100205.09;5088571;28;20204;-70
2022/03/26 01:59:06;;;;;;;26.55;18.63;;;;;;;9.71;34.13;100226.63;5088532;28;20045;-69
2022/03/26 02:01:39;;;;;;;25.42;16.30;;;;;;;9.78;34.08;100216.66;5070983;28;20383;-69
2022/03/26 02:04:12;;;;;;;24.85;16.58;;;;;;;9.93;33.71;100193.09;5088528;28;20101;-70
2022/03/26 02:06:44;;;;;;;22.23;15.02;;;;;;;9.99;33.59;100186.69;5088466;28;20086;-69
2022/03/26 02:09:17;;;;;;;24.58;16.35;;;;;;;9.63;33.71;100133.41;5071074;28;20372;-69
2022/03/26 02:11:51;;;;;;;36.05;16.48;;;;;;;9.47;34.11;100134.91;5087865;28;20037;-70
2022/03/26 02:14:24;;;;;;;24.45;17.95;;;;;;;8.60;33.82;100017.34;5088449;28;20044;-69
2022/03/26 02:16:57;;;;;;;23.38;15.32;;;;;;;9.59;34.11;100200.59;5088647;28;20086;-69
2022/03/26 02:19:29;;;;;;;23.15;15.25;;;;;;;9.29;34.11;100157.59;5088245;28;20040;-70
2022/03/26 02:22:02;;;;;;;24.13;17.08;;;;;;;9.74;34.06;100193.88;5088151;28;20242;-69
2022/03/26 02:24:35;;;;;;;22.33;16.48;;;;;;;9.74;34.08;100197.38;5088343;28;20049;-70
2022/03/26 02:27:07;;;;;;;23.77;17.08;;;;;;;9.65;34.24;100199.50;5088360;28;20060;-69
2022/03/26 02:29:40;;;;;;;27.02;17.42;;;;;;;8.63;34.37;100066.59;5087398;28;20040;-69
2022/03/26 02:32:12;;;;;;;35.53;20.83;;;;;;;9.44;34.46;100206.47;5088215;28;20040;-69
2022/03/26 02:34:44;;;;;;;24.48;16.15;;;;;;;9.06;34.94;100153.13;5087812;28;20059;-69
2022/03/26 02:37:18;;;;;;;25.42;15.55;;;;;;;8.05;34.81;99997.34;5070554;28;20245;-68
2022/03/26 02:39:51;;;;;;;24.93;16.00;;;;;;;9.02;34.85;100158.59;5088220;28;20247;-70
2022/03/26 02:42:23;;;;;;;23.75;16.50;;;;;;;9.22;35.56;100227.53;5087316;28;20443;-69
2022/03/26 02:44:56;;;;;;;23.38;16.20;;;;;;;9.27;34.56;100193.84;5070312;28;20054;-69
2022/03/26 02:47:28;;;;;;;22.13;16.05;;;;;;;9.31;34.64;100191.03;5088152;28;20041;-70
2022/03/26 02:50:01;;;;;;;26.30;17.58;;;;;;;9.25;34.77;100200.97;5088072;28;20056;-69
2022/03/26 02:52:36;;;;;;;27.90;16.95;;;;;;;9.18;35.01;100202.94;5087593;28;20044;-69
2022/03/26 02:55:09;;;;;;;24.67;16.73;;;;;;;9.16;35.00;100202.13;5087576;28;20041;-68
2022/03/26 02:57:46;;;;;;;26.55;16.50;;;;;;;9.26;34.75;100197.41;5087742;28;20350;-69
2022/03/26 03:00:18;;;;;;;22.02;16.38;;;;;;;9.15;34.96;100196.88;5087755;28;20040;-69
2022/03/26 03:02:50;;;;;;;29.05;19.20;;;;;;;9.15;34.67;100218.91;5087340;28;20056;-69
2022/03/26 03:05:23;;;;;;;27.45;16.85;;;;;;;8.88;34.95;100153.78;5069953;28;20181;-69
2022/03/26 03:07:57;;;;;;;23.77;15.98;;;;;;;9.06;35.17;100194.56;5087352;28;20246;-69
2022/03/26 03:10:30;;;;;;;27.13;16.80;;;;;;;8.68;34.98;100126.28;5087474;28;20070;-69
2022/03/26 03:13:02;;;;;;;27.55;18.05;;;;;;;9.09;35.05;100200.63;5087334;28;20048;-69
2022/03/26 03:15:35;;;;;;;22.38;15.75;;;;;;;9.05;34.84;100204.28;5087418;28;20048;-69
2022/03/26 03:18:07;;;;;;;26.85;17.17;;;;;;;8.30;35.44;100085.34;5070207;28;20293;-69
2022/03/26 03:20:39;;;;;;;25.90;17.83;;;;;;;8.60;35.49;100146.81;5086921;28;20040;-70
2022/03/26 03:23:13;;;;;;;27.38;16.60;;;;;;;8.72;35.54;100160.53;5086932;28;20207;-70
2022/03/26 03:25:46;;;;;;;24.73;17.87;;;;;;;8.88;35.29;100196.09;5087039;28;20251;-68
2022/03/26 03:28:16;;;;;;;25.02;16.35;;;;;;;8.81;35.39;100198.06;5087221;28;20398;-69
2022/03/26 03:30:46;;;;;;;25.92;16.02;;;;;;;8.86;35.40;100190.00;5052586;28;20111;-70
2022/03/26 03:33:17;;;;;;;30.40;17.50;;;;;;;9.08;35.11;100190.97;5069375;28;20249;-69
2022/03/26 03:35:47;;;;;;;25.52;17.63;;;;;;;9.20;34.88;100197.63;5086642;28;20040;-69
2022/03/26 03:38:19;;;;;;;25.95;17.15;;;;;;;9.24;35.09;100191.31;5086941;28;20072;-69
2022/03/26 03:40:47;;;;;;;27.85;17.27;;;;;;;8.92;35.02;100131.63;5086542;28;20040;-69
2022/03/26 03:43:17;;;;;;;26.20;17.52;;;;;;;9.21;35.01;100186.97;5086865;28;20123;-69
2022/03/26 03:45:47;;;;;;;24.02;16.40;;;;;;;8.64;34.73;100115.88;5086062;28;20040;-69
2022/03/26 03:48:18;;;;;;;25.85;17.27;;;;;;;9.20;34.96;100189.69;5069312;28;20048;-69
2022/03/26 03:50:48;;;;;;;24.35;17.48;;;;;;;9.19;34.92;100187.94;5085896;28;20043;-69
2022/03/26 03:53:19;;;;;;;27.25;17.95;;;;;;;9.12;35.33;100189.94;5086581;28;20041;-69
2022/03/26 03:55:48;;;;;;;30.10;17.40;;;;;;;9.14;35.10;100188.09;5086232;28;20047;-69
2022/03/26 03:58:18;;;;;;;27.63;17.95;;;;;;;9.17;34.92;100179.19;5069105;28;20062;-69
2022/03/26 04:00:48;;;;;;;24.38;16.38;;;;;;;9.12;35.32;100184.63;5086270;28;20041;-69
2022/03/26 04:03:18;;;;;;;25.88;16.30;;;;;;;9.01;35.23;100184.16;5065258;28;20080;-69
2022/03/26 04:05:49;;;;;;;24.60;17.38;;;;;;;8.96;35.36;100189.63;5066568;28;20056;-69
2022/03/26 04:08:21;;;;;;;24.63;16.33;;;;;;;8.93;35.43;100195.00;5066670;28;20075;-68
2022/03/26 04:10:49;;;;;;;29.65;17.20;;;;;;;8.89;35.71;100193.38;5066263;28;20084;-69
2022/03/26 04:13:19;;;;;;;26.90;18.00;;;;;;;8.85;35.60;100193.56;5065158;28;20293;-69
2022/03/26 04:15:49;;;;;;;26.05;17.75;;;;;;;8.70;35.97;100200.22;5066011;28;20300;-69
2022/03/26 04:18:19;;;;;;;25.70;17.33;;;;;;;8.75;35.85;100235.28;5066109;28;20100;-69
2022/03/26 04:20:49;;;;;;;29.02;17.98;;;;;;;8.38;36.37;100148.47;5066197;28;20087;-69
2022/03/26 04:23:21;;;;;;;28.85;17.35;;;;;;;8.22;36.43;100137.56;5066106;28;20045;-69
2022/03/26 04:25:50;;;;;;;31.50;18.00;;;;;;;8.57;36.26;100197.13;5065791;28;20182;-69
2022/03/26 04:28:20;;;;;;;24.70;17.48;;;;;;;8.20;36.08;100151.72;5065400;28;20056;-69
2022/03/26 04:30:50;;;;;;;33.15;16.45;;;;;;;8.43;36.53;100199.38;5065007;28;20047;-69
2022/03/26 04:33:20;;;;;;;27.55;17.20;;;;;;;8.41;36.51;100208.25;5064884;28;20037;-69
2022/03/26 04:35:50;;;;;;;27.35;15.98;;;;;;;8.39;36.77;100205.66;5064931;28;20056;-69
2022/03/26 04:38:22;;;;;;;26.08;17.38;;;;;;;8.38;36.75;100190.72;5065483;28;20060;-69
2022/03/26 04:40:50;;;;;;;25.15;16.92;;;;;;;8.31;37.09;100202.41;5065184;28;20340;-69
2022/03/26 04:43:23;;;;;;;23.92;16.33;;;;;;;8.24;36.83;100203.53;5064858;28;20253;-69
2022/03/26 04:45:50;;;;;;;26.38;17.17;;;;;;;7.89;37.11;100154.50;5065477;28;20049;-69
2022/03/26 04:48:21;;;;;;;27.60;17.80;;;;;;;8.16;36.92;100201.13;5065850;28;20102;-69
2022/03/26 04:50:52;;;;;;;28.92;17.08;;;;;;;7.97;37.21;100174.44;5065547;28;20108;-69
2022/03/26 04:53:23;;;;;;;32.05;17.45;;;;;;;8.03;37.80;100211.22;5065843;28;20151;-69
2022/03/26 04:55:51;;;;;;;25.35;17.05;;;;;;;8.00;37.64;100205.16;5064782;28;20106;-68
2022/03/26 04:58:21;;;;;;;27.10;17.83;;;;;;;7.57;37.69;100142.28;5069627;28;20063;-68
2022/03/26 05:00:51;;;;;;;29.00;18.23;;;;;;;7.96;37.29;100211.44;5069163;28;20059;-68
2022/03/26 05:03:21;;;;;;;30.05;19.60;;;;;;;7.89;38.02;100205.50;5086251;28;20324;-69
2022/03/26 05:05:52;;;;;;;26.65;17.05;;;;;;;7.62;37.58;100172.91;5072512;28;20049;-68
2022/03/26 05:08:23;;;;;;;25.52;18.08;;;;;;;6.40;37.58;99978.75;5089539;28;20083;-68
2022/03/26 05:10:52;;;;;;;24.30;16.40;;;;;;;7.96;37.64;100237.84;5089547;28;20040;-68
2022/03/26 05:13:23;;;;;;;26.13;16.30;;;;;;;8.13;37.61;100232.06;5090179;28;20098;-69
2022/03/26 05:15:52;;;;;;;27.50;16.77;;;;;;;8.26;36.95;100236.03;5071766;28;20052;-69
2022/03/26 05:18:22;;;;;;;28.73;16.35;;;;;;;7.91;37.04;100173.78;5089391;28;20300;-69
2022/03/26 05:20:55;;;;;;;29.20;17.25;;;;;;;8.30;37.10;100245.59;5088923;28;20041;-69
2022/03/26 05:23:29;;;;;;;25.08;16.48;;;;;;;8.23;37.19;100252.84;5089298;28;20067;-69
2022/03/26 05:25:58;;;;;;;29.60;17.50;;;;;;;8.26;37.20;100246.59;5089360;28;20204;-69
2022/03/26 05:28:28;;;;;;;24.25;16.58;;;;;;;8.25;37.48;100252.78;5071892;28;20040;-69
2022/03/26 05:30:58;;;;;;;31.48;18.27;;;;;;;7.96;37.73;100199.13;5071975;28;20207;-69
2022/03/26 05:33:28;;;;;;;28.83;17.92;;;;;;;8.13;37.01;100217.06;5089158;28;20036;-69
2022/03/26 05:35:58;;;;;;;27.38;16.63;;;;;;;8.56;36.86;100257.97;5071616;28;20098;-69
2022/03/26 05:38:31;;;;;;;27.67;16.95;;;;;;;8.66;36.98;100262.03;5089004;28;20326;-69
2022/03/26 05:40:59;;;;;;;21.95;15.40;;;;;;;8.67;36.81;100264.63;5088880;28;20182;-69
2022/03/26 05:43:29;;;;;;;23.55;14.75;;;;;;;8.27;36.98;100200.78;5088835;28;20041;-69
2022/03/26 05:45:59;;;;;;;26.27;16.35;;;;;;;7.76;36.93;100138.19;5088706;28;20380;-69
2022/03/26 05:48:29;;;;;;;26.05;19.23;;;;;;;8.79;36.94;100271.28;5087896;28;20047;-69
2022/03/26 05:50:59;;;;;;;25.67;16.77;;;;;;;9.29;36.58;100261.63;5088982;28;20040;-69
2022/03/26 05:53:31;;;;;;;28.75;16.88;;;;;;;9.50;35.25;100171.84;5087729;28;20113;-69
2022/03/26 05:55:59;;;;;;;32.97;17.77;;;;;;;10.90;33.64;100257.16;5088512;28;20036;-69
2022/03/26 05:58:29;;;;;;;25.25;16.05;;;;;;;11.79;32.17;100256.78;5070978;28;20060;-69
2022/03/26 06:01:00;;;;;;;23.23;15.80;;;;;;;12.81;30.84;100254.56;5088454;28;20092;-69
2022/03/26 06:03:30;;;;;;;29.65;16.98;;;;;;;14.03;29.47;100257.94;5088289;28;20125;-70
2022/03/26 06:06:00;;;;;;;25.65;16.58;;;;;;;14.96;28.24;100244.66;5071205;28;20041;-69
2022/03/26 06:08:32;;;;;;;23.60;15.45;;;;;;;15.76;27.33;100244.22;5053875;28;20107;-70
2022/03/26 06:11:01;;;;;;;27.17;17.02;;;;;;;15.79;26.37;100163.00;5070876;28;20059;-69
2022/03/26 06:13:31;;;;;;;27.10;18.50;;;;;;;16.56;26.61;100239.97;5071226;28;20025;-69
2022/03/26 06:16:01;;;;;;;27.35;16.00;;;;;;;15.84;27.37;100244.63;5087485;28;20044;-70
2022/03/26 06:18:31;;;;;;;26.70;18.52;;;;;;;15.31;27.87;100261.25;5070732;28;20041;-69
2022/03/26 06:21:01;;;;;;;28.13;17.92;;;;;;;15.47;28.22;100261.19;5070758;28;20235;-69
2022/03/26 06:23:33;;;;;;;25.20;17.83;;;;;;;15.02;27.58;100111.69;5088030;28;20223;-69
2022/03/26 06:26:01;;;;;;;27.50;18.63;;;;;;;16.40;26.96;100242.81;5087941;28;20085;-69
2022/03/26 06:28:31;;;;;;;24.25;17.80;;;;;;;17.18;26.40;100240.28;5054231;28;20048;-69
2022/03/26 06:31:04;;;;;;;26.33;17.58;;;;;;;17.65;25.84;100244.22;5053876;28;20044;-69
2022/03/26 06:33:33;;;;;;;26.25;16.33;;;;;;;17.99;25.36;100266.81;5070930;28;20071;-70
2022/03/26 06:36:04;;;;;;;25.63;17.52;;;;;;;16.82;25.70;100109.78;5070308;28;20047;-69
2022/03/26 06:38:38;;;;;;;25.77;18.35;;;;;;;16.79;26.31;100242.00;5070318;28;20036;-69
2022/03/26 06:41:12;;;;;;;26.45;18.48;;;;;;;15.87;28.33;100256.94;5070678;28;20036;-70
2022/03/26 06:43:45;;;;;;;22.73;17.75;;;;;;;14.22;29.10;100137.81;5053335;28;20060;-70
2022/03/26 06:46:18;;;;;;;25.08;17.40;;;;;;;14.05;30.81;100262.25;5087892;28;20041;-69
2022/03/26 06:48:50;;;;;;;24.80;17.75;;;;;;;13.40;31.26;100362.47;5086983;28;20250;-69
2022/03/26 06:51:22;;;;;;;26.88;17.67;;;;;;;12.95;32.63;100272.50;5070359;28;20036;-69
2022/03/26 06:53:56;;;;;;;26.80;18.42;;;;;;;12.57;33.09;100281.50;5087693;28;20063;-69
2022/03/26 06:56:28;;;;;;;26.73;17.70;;;;;;;11.51;33.54;100131.53;5087764;28;20281;-69
2022/03/26 06:59:01;;;;;;;26.40;17.77;;;;;;;11.44;33.47;100095.59;5070251;28;20067;-69
2022/03/26 07:01:33;;;;;;;23.60;17.75;;;;;;;12.44;33.87;100281.25;5087400;28;20292;-70
2022/03/26 07:04:06;;;;;;;23.67;17.52;;;;;;;12.14;33.92;100230.38;5053246;28;20255;-69
2022/03/26 07:06:38;;;;;;;28.58;18.85;;;;;;;12.55;33.56;100283.38;5087551;28;20103;-69
2022/03/26 07:09:12;;;;;;;24.83;19.15;;;;;;;12.27;33.75;100236.88;5087516;28;20047;-69
2022/03/26 07:11:44;;;;;;;25.52;18.90;;;;;;;10.59;33.44;99914.75;5087374;28;20087;-69
2022/03/26 07:14:16;;;;;;;22.80;18.95;;;;;;;12.87;33.49;100290.63;5069778;28;20047;-70
2022/03/26 07:16:49;;;;;;;27.33;19.63;;;;;;;12.91;32.90;100275.38;5087319;28;20046;-69
2022/03/26 07:19:21;;;;;;;28.13;18.58;;;;;;;12.36;32.78;100201.00;5053254;28;20040;-69
2022/03/26 07:21:54;;;;;;;24.65;18.45;;;;;;;13.04;32.23;100277.34;5069369;28;20047;-69
2022/03/26 07:24:28;;;;;;;28.08;18.27;;;;;;;13.01;32.29;100284.63;5086815;28;20311;-69
2022/03/26 07:27:00;;;;;;;31.95;18.42;;;;;;;13.04;32.49;100281.81;5087099;28;20052;-69
2022/03/26 07:29:35;;;;;;;28.27;19.50;;;;;;;13.11;32.22;100277.91;5069420;28;20310;-69
2022/03/26 07:32:09;;;;;;;32.03;21.02;;;;;;;12.78;32.20;100195.34;5069804;28;20208;-70
2022/03/26 07:34:41;;;;;;;26.25;18.65;;;;;;;13.22;32.14;100282.69;5086804;28;20102;-70
2022/03/26 07:37:14;;;;;;;32.15;20.10;;;;;;;13.26;32.19;100278.91;5052451;28;20353;-70
2022/03/26 07:39:48;;;;;;;27.02;18.52;;;;;;;12.55;32.06;100159.28;5086505;28;20108;-70
2022/03/26 07:42:20;;;;;;;27.73;18.80;;;;;;;13.32;31.99;100291.91;5086821;28;20246;-69
2022/03/26 07:44:53;;;;;;;29.92;20.67;;;;;;;13.13;31.86;100241.44;5086439;28;20103;-70
2022/03/26 07:47:25;;;;;;;25.48;18.25;;;;;;;12.29;31.94;100087.97;5086807;28;20036;-70
2022/03/26 07:49:58;;;;;;;27.88;19.20;;;;;;;13.29;31.63;100230.84;5086163;28;20116;-70
2022/03/26 07:52:31;;;;;;;30.42;20.63;;;;;;;13.66;31.71;100291.91;5068768;28;20050;-70
2022/03/26 07:55:06;;;;;;;25.02;17.83;;;;;;;13.73;31.25;100295.09;5085990;28;20037;-69
2022/03/26 07:57:39;;;;;;;27.45;20.15;;;;;;;13.58;31.37;100243.50;5052149;28;20049;-69
2022/03/26 08:00:12;;;;;;;26.10;19.05;;;;;;;13.43;31.23;100196.38;5068718;28;20054;-69
2022/03/26 08:02:44;;;;;;;25.75;19.10;;;;;;;14.21;30.83;100309.38;5086157;28;20112;-69
2022/03/26 08:05:18;;;;;;;27.90;19.92;;;;;;;14.08;30.51;100234.56;5069829;28;20071;-69
2022/03/26 08:07:52;;;;;;;30.90;19.73;;;;;;;14.29;30.68;100233.34;5086182;28;20177;-69
2022/03/26 08:10:26;;;;;;;24.38;17.75;;;;;;;13.74;30.29;100107.69;5068642;28;20052;-69
2022/03/26 08:12:58;;;;;;;24.65;18.38;;;;;;;14.98;29.82;100274.78;5068771;28;20304;-69
2022/03/26 08:15:31;;;;;;;31.23;20.88;;;;;;;14.42;29.55;100174.84;5085842;28;20094;-69
2022/03/26 08:18:03;;;;;;;24.92;18.92;;;;;;;15.21;29.72;100279.63;5085348;28;20340;-69
2022/03/26 08:20:36;;;;;;;32.92;23.30;;;;;;;15.39;29.62;100280.34;5068397;28;20051;-68
2022/03/26 08:23:09;;;;;;;27.25;18.48;;;;;;;15.78;29.06;100286.91;5085828;28;20053;-69
2022/03/26 08:28:33;;;;;;;24.73;17.83;;;;;;;16.32;28.49;100322.69;5051424;28;20123;-69
2022/03/26 08:31:03;;;;;;;29.55;19.40;;;;;;;15.99;27.94;100187.50;5085887;28;20045;-69
2022/03/26 08:33:33;;;;;;;29.65;20.98;;;;;;;16.67;27.68;100282.97;5068692;28;20037;-69
2022/03/26 08:36:04;;;;;;;26.52;18.80;;;;;;;16.75;27.62;100285.16;5068328;28;20040;-68
2022/03/26 08:38:34;;;;;;;25.13;18.20;;;;;;;16.56;27.95;100235.47;5085182;28;20036;-69
2022/03/26 08:41:05;;;;;;;28.50;19.20;;;;;;;16.26;27.75;100192.03;5068246;28;20296;-69
2022/03/26 08:43:34;;;;;;;26.73;17.83;;;;;;;17.17;27.84;100279.59;5067870;28;20033;-69
2022/03/26 08:46:05;;;;;;;26.90;17.58;;;;;;;17.02;27.41;100226.22;5068510;28;20052;-69
2022/03/26 08:48:34;;;;;;;27.92;20.30;;;;;;;17.57;27.04;100277.75;5085274;28;20059;-69
2022/03/26 08:51:05;;;;;;;28.88;20.05;;;;;;;17.61;26.82;100262.34;5085544;28;20060;-69
2022/03/26 08:53:35;;;;;;;27.65;19.55;;;;;;;17.75;26.50;100277.47;5068332;28;20043;-69
2022/03/26 08:56:06;;;;;;;27.67;19.30;;;;;;;17.91;26.41;100291.50;5068357;28;20048;-69
2022/03/26 08:58:43;;;;;;;29.42;21.58;;;;;;;17.84;26.20;100274.13;5068342;28;20075;-69
2022/03/26 09:01:11;;;;;;;30.95;21.13;;;;;;;16.70;26.28;100105.28;5085701;28;20051;-69
2022/03/26 09:03:43;;;;;;;28.63;20.90;;;;;;;17.78;26.72;100275.44;5084855;28;20076;-69
2022/03/26 09:06:12;;;;;;;25.02;17.52;;;;;;;17.58;26.55;100225.00;5068773;28;20075;-68
2022/03/26 09:08:40;;;;;;;29.40;19.67;;;;;;;18.04;26.37;100268.22;5067908;28;20320;-69
2022/03/26 09:11:12;;;;;;;24.95;18.05;;;;;;;18.06;26.16;100266.28;5052330;28;20284;-69
2022/03/26 09:13:41;;;;;;;29.13;20.10;;;;;;;18.05;26.44;100269.94;5067912;28;20052;-68
2022/03/26 09:16:11;;;;;;;25.30;17.50;;;;;;;18.22;26.30;100266.03;5085790;28;20104;-69
2022/03/26 09:18:41;;;;;;;26.13;19.55;;;;;;;18.32;26.14;100218.78;5085158;28;20292;-69
2022/03/26 09:21:11;;;;;;;26.75;17.48;;;;;;;18.92;25.76;100244.72;5067925;28;20288;-69
2022/03/26 09:23:41;;;;;;;28.77;20.92;;;;;;;19.08;24.56;100252.47;5067372;28;20070;-69
2022/03/26 09:26:13;;;;;;;28.83;18.70;;;;;;;18.91;24.80;100211.66;5084875;28;20047;-69
2022/03/26 09:28:42;;;;;;;27.42;18.90;;;;;;;19.44;25.32;100246.13;5085140;28;20032;-69
2022/03/26 09:31:12;;;;;;;27.60;19.05;;;;;;;19.62;24.85;100242.00;5084857;28;20041;-70
2022/03/26 09:33:42;;;;;;;26.73;19.67;;;;;;;18.19;24.30;99972.00;5035590;28;20107;-70
2022/03/26 09:36:12;;;;;;;32.13;21.70;;;;;;;17.47;24.40;99841.72;5084965;28;20036;-69
2022/03/26 09:38:42;;;;;;;25.58;19.33;;;;;;;20.01;24.49;100239.84;5067788;28;20108;-69
2022/03/26 09:41:14;;;;;;;29.20;20.95;;;;;;;19.41;23.80;100128.97;5067745;28;20063;-71
2022/03/26 09:43:43;;;;;;;27.77;18.23;;;;;;;20.07;24.21;100236.66;5070619;28;20227;-69
2022/03/26 09:46:12;;;;;;;29.10;19.30;;;;;;;20.13;23.93;100236.16;5071588;28;20044;-70
2022/03/26 09:48:43;;;;;;;28.58;18.92;;;;;;;20.09;24.36;100232.00;5088930;28;20303;-70
2022/03/26 09:51:15;;;;;;;28.75;19.80;;;;;;;20.02;23.96;100231.66;5088875;28;20107;-70
2022/03/26 09:53:44;;;;;;;28.73;19.35;;;;;;;19.55;24.13;100181.63;5088372;28;20123;-70
2022/03/26 09:56:15;;;;;;;25.33;19.58;;;;;;;19.55;24.16;100209.38;5071036;28;20071;-70
2022/03/26 09:58:43;;;;;;;29.00;18.98;;;;;;;20.13;24.08;100218.19;5088647;28;20102;-69
2022/03/26 10:01:13;;;;;;;23.33;17.85;;;;;;;20.37;23.91;100211.81;5088324;28;20036;-70
2022/03/26 10:04:08;;;;;;;25.88;17.67;;;;;;;20.36;22.30;100172.41;5088357;28;20115;-69
2022/03/26 10:06:48;;;;;;;26.17;18.55;;;;;;;20.60;22.89;100216.13;5088416;28;20311;-70
2022/03/26 10:09:28;;;;;;;26.75;19.17;;;;;;;20.37;22.56;100193.81;5088257;28;20098;-70
2022/03/26 10:12:04;;;;;;;23.63;16.95;;;;;;;20.63;23.47;100209.66;5088325;28;20051;-68
2022/03/26 10:14:41;;;;;;;22.30;17.23;;;;;;;20.73;23.37;100216.81;5088168;28;20047;-68
2022/03/26 10:17:17;;;;;;;24.23;18.23;;;;;;;20.75;23.08;100214.00;5071020;28;20116;-69
2022/03/26 10:19:51;;;;;;;26.73;19.45;;;;;;;20.60;23.21;100202.69;5088439;28;20059;-69
2022/03/26 10:22:35;;;;;;;27.42;17.73;;;;;;;20.46;22.18;100197.59;5070906;28;20041;-69
2022/03/26 10:25:09;;;;;;;22.27;17.25;;;;;;;20.48;23.18;100196.47;5088280;28;20066;-69
2022/03/26 10:27:43;;;;;;;;;;;;;;;20.53;22.16;100195.22;5088441;28;20048;-69
2022/03/26 10:30:18;;;;;;;22.13;17.23;;;;;;;20.48;23.23;100139.06;5087895;28;19924;-70
2022/03/26 10:32:49;;;;;;;;;;;;;;;20.93;21.78;100184.66;5070991;28;20308;-70
2022/03/26 10:35:24;;;;;;;28.13;18.65;;;;;;;20.93;22.60;100190.03;5087836;28;20123;-70
2022/03/26 10:37:59;;;;;;;24.13;18.95;;;;;;;20.64;22.96;100147.56;5087731;28;20154;-70
2022/03/26 10:40:33;;;;;;;27.73;18.42;;;;;;;21.14;22.86;100183.69;5070190;28;20040;-69
2022/03/26 10:43:10;;;;;;;28.13;18.63;;;;;;;21.04;22.41;100180.09;5087644;28;20044;-70
2022/03/26 10:45:47;;;;;;;25.13;17.63;;;;;;;21.12;22.10;100176.72;5071339;28;20055;-70
2022/03/26 10:48:25;;;;;;;29.15;20.00;;;;;;;21.26;21.63;100181.78;5087387;28;20211;-70
2022/03/26 10:50:59;;;;;;;24.20;16.77;;;;;;;21.29;22.50;100184.22;5087536;28;20036;-70
2022/03/26 10:53:35;;;;;;;22.73;17.10;;;;;;;21.27;22.31;100183.50;5087152;28;20284;-70
2022/03/26 10:56:08;;;;;;;26.52;18.20;;;;;;;20.91;22.06;100128.19;5087145;28;20047;-70
2022/03/26 10:58:39;;;;;;;23.63;17.00;;;;;;;21.21;22.12;100169.69;5087074;28;20303;-70
2022/03/26 11:01:07;;;;;;;20.52;15.50;;;;;;;21.34;22.35;100170.34;5069446;28;20346;-70
2022/03/26 11:03:37;;;;;;;23.55;16.67;;;;;;;21.28;22.58;100169.03;5087094;28;20048;-70
2022/03/26 11:06:09;;;;;;;25.88;17.70;;;;;;;21.26;22.07;100159.38;5087128;28;20044;-70
2022/03/26 11:08:38;;;;;;;27.42;17.13;;;;;;;20.98;22.23;100167.09;5086679;28;20053;-70
2022/03/26 11:11:08;;;;;;;24.95;17.73;;;;;;;21.01;22.65;100155.22;5087081;28;20040;-70
2022/03/26 11:13:44;;;;;;;24.45;16.60;;;;;;;21.03;22.13;100161.34;5086826;28;20040;-70
2022/03/26 11:16:23;;;;;;;31.38;17.67;;;;;;;21.30;21.48;100156.28;5086574;28;20052;-70
2022/03/26 11:19:08;;;;;;;23.83;17.25;;;;;;;21.30;21.38;100150.88;5086650;28;20086;-70
2022/03/26 11:22:01;;;;;;;21.70;17.40;;;;;;;21.42;21.59;100149.81;5086709;28;20308;-70
2022/03/26 11:25:02;;;;;;;23.77;17.33;;;;;;;21.64;21.37;100147.91;5086824;28;20307;-70
2022/03/26 11:27:59;;;;;;;22.20;17.60;;;;;;;21.54;20.94;100136.22;5086437;28;20304;-70
2022/03/26 11:30:42;;;;;;;24.92;17.05;;;;;;;21.42;21.15;100133.63;5086438;28;20041;-69
2022/03/26 11:33:15;;;;;;;26.35;17.35;;;;;;;21.63;21.97;100132.72;5086621;28;20036;-69
2022/03/26 11:35:55;;;;;;;21.10;16.60;;;;;;;21.80;20.60;100125.84;5086354;28;20040;-70